Time;durP1;ratioP1;P1;durP2;ratioP2;P2;SDS_P1;SDS_P2;PMS_P1;PMS_P2;Temp;Humidity;BMP_temperature;BMP_pressure;BME280_temperature;BME280_humidity;BME280_pressure;Samples;Min_cycle;Max_cycle;Signal;HPM_P1;HPM_P2
2021/10/23 00:00:08;;;;;;;9.87;4.63;;;;;;;;;;2082032;28;20180;-53
2021/10/23 00:01:12;;;;;;;13.90;4.53;;;;;;;;;;2081959;28;20234;-52
2021/10/23 00:02:12;;;;;;;9.73;4.20;;;;;;;;;;2081957;28;20176;-52
2021/10/23 00:03:13;;;;;;;13.40;4.73;;;;;;;;;;2079582;28;20188;-52
2021/10/23 00:04:13;;;;;;;13.63;3.73;;;;;;;;;;2079172;28;20233;-57
2021/10/23 00:05:13;;;;;;;11.60;4.83;;;;;;;;;;2081797;28;20203;-57
2021/10/23 00:06:13;;;;;;;9.60;4.73;;;;;;;;;;2081404;28;20172;-55
2021/10/23 00:07:14;;;;;;;12.17;4.43;;;;;;;;;;2081221;28;20601;-54
2021/10/23 00:08:14;;;;;;;9.43;4.60;;;;;;;;;;2081228;28;20219;-54
2021/10/23 00:09:14;;;;;;;10.50;5.10;;;;;;;;;;2081259;28;20169;-53
2021/10/23 00:10:14;;;;;;;9.73;4.43;;;;;;;;;;2081603;28;20664;-52
2021/10/23 00:11:15;;;;;;;17.80;5.80;;;;;;;;;;2081851;28;20180;-54
2021/10/23 00:12:15;;;;;;;13.20;4.30;;;;;;;;;;2081947;28;20249;-51
2021/10/23 00:13:16;;;;;;;16.13;5.10;;;;;;;;;;2080810;28;20198;-53
2021/10/23 00:14:16;;;;;;;11.77;4.90;;;;;;;;;;2079504;28;20168;-52
2021/10/23 00:15:17;;;;;;;14.80;5.13;;;;;;;;;;2081240;28;20260;-50
2021/10/23 00:16:17;;;;;;;11.20;5.47;;;;;;;;;;2073254;28;20708;-57
2021/10/23 00:17:18;;;;;;;9.97;4.40;;;;;;;;;;2088654;28;20172;-54
2021/10/23 00:18:18;;;;;;;17.50;5.90;;;;;;;;;;2089159;28;20242;-57
2021/10/23 00:19:18;;;;;;;10.70;5.00;;;;;;;;;;2087849;28;20215;-57
2021/10/23 00:20:19;;;;;;;7.87;4.83;;;;;;;;;;2086967;28;20164;-49
2021/10/23 00:21:19;;;;;;;17.00;6.10;;;;;;;;;;2082037;28;20664;-54
2021/10/23 00:22:19;;;;;;;12.33;4.93;;;;;;;;;;2078994;28;20243;-52
2021/10/23 00:23:20;;;;;;;14.00;4.60;;;;;;;;;;2080023;28;20902;-52
2021/10/23 00:24:20;;;;;;;9.93;4.50;;;;;;;;;;2077651;28;20263;-52
2021/10/23 00:25:21;;;;;;;10.23;4.57;;;;;;;;;;2080008;28;20704;-51
2021/10/23 00:26:21;;;;;;;8.07;4.37;;;;;;;;;;2080550;28;20184;-52
2021/10/23 00:27:22;;;;;;;16.53;5.30;;;;;;;;;;2081210;28;20171;-52
2021/10/23 00:28:22;;;;;;;15.10;4.67;;;;;;;;;;2070502;28;20200;-52
2021/10/23 00:29:22;;;;;;;18.53;5.40;;;;;;;;;;2070618;28;20247;-52
2021/10/23 00:30:23;;;;;;;12.50;5.00;;;;;;;;;;2079743;28;20184;-54
2021/10/23 00:31:23;;;;;;;8.60;4.97;;;;;;;;;;2081605;28;20183;-53
2021/10/23 00:32:24;;;;;;;9.97;4.57;;;;;;;;;;2080505;28;20179;-52
2021/10/23 00:33:24;;;;;;;12.53;5.10;;;;;;;;;;2080640;28;20582;-52
2021/10/23 00:34:25;;;;;;;7.03;4.43;;;;;;;;;;2079558;28;20270;-52
2021/10/23 00:35:25;;;;;;;10.40;4.90;;;;;;;;;;2080672;28;20235;-53
2021/10/23 00:36:25;;;;;;;15.50;5.00;;;;;;;;;;2080397;28;20259;-55
2021/10/23 00:37:25;;;;;;;14.27;4.97;;;;;;;;;;2081057;28;20218;-53
2021/10/23 00:38:26;;;;;;;13.87;5.50;;;;;;;;;;2080758;28;20230;-51
2021/10/23 00:39:26;;;;;;;7.93;4.60;;;;;;;;;;2081481;28;20267;-51
2021/10/23 00:40:27;;;;;;;10.63;5.07;;;;;;;;;;2079074;28;20640;-51
2021/10/23 00:41:27;;;;;;;13.07;4.63;;;;;;;;;;2081293;28;20242;-53
2021/10/23 00:42:27;;;;;;;11.87;4.57;;;;;;;;;;2079597;28;20207;-55
2021/10/23 00:43:28;;;;;;;10.23;4.67;;;;;;;;;;2078306;28;20180;-53
2021/10/23 00:44:29;;;;;;;10.20;5.03;;;;;;;;;;2080424;28;20551;-53
2021/10/23 00:45:29;;;;;;;12.10;4.97;;;;;;;;;;2080444;28;20270;-51
2021/10/23 00:46:29;;;;;;;8.27;5.23;;;;;;;;;;2080711;28;20177;-55
2021/10/23 00:47:30;;;;;;;9.10;4.57;;;;;;;;;;2079569;28;20231;-56
2021/10/23 00:48:30;;;;;;;12.43;4.67;;;;;;;;;;2080152;28;20206;-52
2021/10/23 00:49:31;;;;;;;14.60;5.20;;;;;;;;;;2080161;28;20250;-54
2021/10/23 00:50:31;;;;;;;11.17;4.83;;;;;;;;;;2080300;28;20735;-52
2021/10/23 00:51:31;;;;;;;9.93;4.10;;;;;;;;;;2080235;28;20188;-54
2021/10/23 00:52:32;;;;;;;13.43;4.93;;;;;;;;;;2081334;28;20179;-52
2021/10/23 00:53:32;;;;;;;17.43;4.63;;;;;;;;;;2077752;28;20181;-53
2021/10/23 00:54:33;;;;;;;12.37;5.40;;;;;;;;;;2080655;28;20787;-55
2021/10/23 00:55:33;;;;;;;12.90;5.40;;;;;;;;;;2078216;28;20318;-52
2021/10/23 00:56:34;;;;;;;12.43;4.77;;;;;;;;;;2077982;28;20227;-55
2021/10/23 00:57:35;;;;;;;15.67;4.97;;;;;;;;;;2078122;28;20181;-55
2021/10/23 00:58:35;;;;;;;9.07;4.47;;;;;;;;;;2080767;28;20191;-52
2021/10/23 00:59:35;;;;;;;13.43;5.10;;;;;;;;;;2080526;28;20180;-53
2021/10/23 01:00:36;;;;;;;10.07;4.87;;;;;;;;;;2079501;28;20836;-52
2021/10/23 01:01:36;;;;;;;6.70;4.20;;;;;;;;;;2079667;28;20180;-52
2021/10/23 01:02:36;;;;;;;11.30;5.13;;;;;;;;;;2080997;28;20172;-53
2021/10/23 01:03:38;;;;;;;8.40;4.10;;;;;;;;;;2079440;28;20229;-52
2021/10/23 01:04:39;;;;;;;9.20;4.77;;;;;;;;;;2081610;28;20176;-53
2021/10/23 01:05:39;;;;;;;11.73;4.57;;;;;;;;;;2080485;28;20180;-52
2021/10/23 01:06:40;;;;;;;15.57;4.87;;;;;;;;;;2081429;28;20200;-52
2021/10/23 01:07:40;;;;;;;9.17;4.03;;;;;;;;;;2080459;28;20214;-53
2021/10/23 01:08:41;;;;;;;10.97;4.63;;;;;;;;;;2081442;28;20194;-52
2021/10/23 01:09:43;;;;;;;10.53;4.80;;;;;;;;;;2079258;28;20210;-55
2021/10/23 01:10:43;;;;;;;9.63;4.00;;;;;;;;;;2079526;28;20171;-53
2021/10/23 01:11:44;;;;;;;17.00;4.77;;;;;;;;;;2082013;28;20832;-55
2021/10/23 01:12:44;;;;;;;7.83;4.63;;;;;;;;;;2082484;28;20187;-56
2021/10/23 01:13:45;;;;;;;13.87;4.60;;;;;;;;;;2078777;28;20188;-53
2021/10/23 01:14:46;;;;;;;12.97;4.60;;;;;;;;;;2080651;28;20183;-56
2021/10/23 01:15:46;;;;;;;8.17;4.37;;;;;;;;;;2080742;28;20287;-56
2021/10/23 01:16:47;;;;;;;9.17;4.53;;;;;;;;;;2077449;28;20211;-52
2021/10/23 01:17:48;;;;;;;10.13;4.30;;;;;;;;;;2080110;28;20171;-52
2021/10/23 01:18:48;;;;;;;13.67;4.63;;;;;;;;;;2079079;28;20203;-53
2021/10/23 01:19:49;;;;;;;8.73;4.33;;;;;;;;;;2080573;28;20542;-52
2021/10/23 01:20:50;;;;;;;6.33;4.60;;;;;;;;;;2078762;28;20177;-52
2021/10/23 01:21:50;;;;;;;5.53;4.07;;;;;;;;;;2081473;28;20187;-55
2021/10/23 01:22:51;;;;;;;15.03;4.17;;;;;;;;;;2079489;28;20255;-52
2021/10/23 01:23:51;;;;;;;11.07;4.73;;;;;;;;;;2080615;28;20184;-52
2021/10/23 01:24:51;;;;;;;13.67;4.60;;;;;;;;;;2078214;28;20195;-53
2021/10/23 01:25:51;;;;;;;11.40;4.77;;;;;;;;;;2079533;28;20553;-52
2021/10/23 01:26:52;;;;;;;11.57;4.60;;;;;;;;;;2080404;28;20199;-55
2021/10/23 01:27:55;;;;;;;9.03;4.03;;;;;;;;;;2079356;28;20169;-52
2021/10/23 01:28:56;;;;;;;14.90;4.83;;;;;;;;;;2075011;28;20184;-53
2021/10/23 01:29:56;;;;;;;10.03;4.30;;;;;;;;;;2080767;28;20191;-53
2021/10/23 01:30:57;;;;;;;10.43;4.27;;;;;;;;;;2079827;28;20164;-54
2021/10/23 01:31:57;;;;;;;9.93;4.30;;;;;;;;;;2079443;28;20211;-56
2021/10/23 01:32:59;;;;;;;9.30;3.30;;;;;;;;;;2076526;28;20259;-56
2021/10/23 01:34:09;;;;;;;10.17;4.63;;;;;;;;;;2079730;28;20172;-52
2021/10/23 01:35:09;;;;;;;8.30;3.93;;;;;;;;;;2080623;28;20168;-55
2021/10/23 01:36:10;;;;;;;13.27;4.30;;;;;;;;;;2080187;28;20180;-52
2021/10/23 01:37:13;;;;;;;9.60;4.20;;;;;;;;;;2079693;28;20234;-54
2021/10/23 01:38:13;;;;;;;8.47;3.83;;;;;;;;;;2076800;28;20184;-52
2021/10/23 01:39:14;;;;;;;12.23;4.83;;;;;;;;;;2081285;28;20168;-53
2021/10/23 01:40:16;;;;;;;8.47;4.17;;;;;;;;;;2077426;28;20199;-55
2021/10/23 01:41:17;;;;;;;10.53;4.83;;;;;;;;;;2080472;28;20716;-56
2021/10/23 01:42:17;;;;;;;8.17;4.57;;;;;;;;;;2079466;28;20226;-55
2021/10/23 01:43:17;;;;;;;13.17;4.67;;;;;;;;;;2079813;28;20176;-54
2021/10/23 01:44:17;;;;;;;10.90;4.67;;;;;;;;;;2078667;28;20172;-53
2021/10/23 01:45:18;;;;;;;11.57;4.27;;;;;;;;;;2080295;28;20172;-52
2021/10/23 01:46:18;;;;;;;7.07;3.93;;;;;;;;;;2079426;28;20199;-53
2021/10/23 01:47:21;;;;;;;15.37;4.60;;;;;;;;;;2079693;28;20172;-57
2021/10/23 01:48:22;;;;;;;12.27;4.47;;;;;;;;;;2078740;28;20180;-54
2021/10/23 01:49:22;;;;;;;10.10;4.40;;;;;;;;;;2080549;28;20204;-53
2021/10/23 01:50:23;;;;;;;10.30;4.00;;;;;;;;;;2078686;28;20536;-54
2021/10/23 01:51:23;;;;;;;12.80;4.93;;;;;;;;;;2080701;28;20168;-52
2021/10/23 01:52:23;;;;;;;13.50;4.47;;;;;;;;;;2078743;28;20203;-53
2021/10/23 01:53:24;;;;;;;10.07;4.30;;;;;;;;;;2077992;28;20173;-54
2021/10/23 01:54:24;;;;;;;10.93;4.40;;;;;;;;;;2079668;28;20203;-52
2021/10/23 01:55:24;;;;;;;9.53;4.40;;;;;;;;;;2079100;28;20191;-52
2021/10/23 01:56:25;;;;;;;11.80;3.90;;;;;;;;;;2080284;28;20234;-52
2021/10/23 01:57:25;;;;;;;15.00;4.83;;;;;;;;;;2079899;28;20247;-52
2021/10/23 01:58:25;;;;;;;7.77;4.47;;;;;;;;;;2080876;28;20644;-52
2021/10/23 01:59:25;;;;;;;9.17;4.10;;;;;;;;;;2080272;28;20183;-54
2021/10/23 02:00:26;;;;;;;14.33;5.03;;;;;;;;;;2080168;28;20210;-53
2021/10/23 02:01:26;;;;;;;16.27;4.77;;;;;;;;;;2080609;28;20234;-54
2021/10/23 02:02:26;;;;;;;18.03;4.63;;;;;;;;;;2079784;28;20230;-54
2021/10/23 02:03:27;;;;;;;11.03;4.07;;;;;;;;;;2080744;28;20574;-52
2021/10/23 02:04:27;;;;;;;9.23;3.70;;;;;;;;;;2080497;28;20180;-53
2021/10/23 02:05:27;;;;;;;12.17;4.43;;;;;;;;;;2079387;28;20176;-52
2021/10/23 02:06:28;;;;;;;9.97;4.43;;;;;;;;;;2080355;28;20529;-52
2021/10/23 02:07:28;;;;;;;8.13;4.03;;;;;;;;;;2080148;28;20191;-53
2021/10/23 02:08:28;;;;;;;10.10;4.10;;;;;;;;;;2080513;28;20184;-54
2021/10/23 02:09:29;;;;;;;13.17;4.47;;;;;;;;;;2079773;28;20564;-55
2021/10/23 02:10:29;;;;;;;14.73;4.50;;;;;;;;;;2079350;28;20180;-54
2021/10/23 02:11:29;;;;;;;9.50;4.83;;;;;;;;;;2080060;28;20279;-53
2021/10/23 02:12:30;;;;;;;8.03;4.07;;;;;;;;;;2081468;28;20267;-52
2021/10/23 02:13:30;;;;;;;11.57;4.43;;;;;;;;;;2081816;28;20182;-52
2021/10/23 02:14:30;;;;;;;9.83;5.20;;;;;;;;;;2082114;28;20257;-53
2021/10/23 02:15:30;;;;;;;15.47;4.60;;;;;;;;;;2081985;28;20268;-52
2021/10/23 02:16:31;;;;;;;10.00;4.47;;;;;;;;;;2081878;28;20180;-51
2021/10/23 02:17:31;;;;;;;11.77;4.30;;;;;;;;;;2081920;28;20192;-53
2021/10/23 02:18:31;;;;;;;7.77;3.87;;;;;;;;;;2082375;28;20172;-52
2021/10/23 02:19:31;;;;;;;12.77;4.47;;;;;;;;;;2082000;28;20563;-52
2021/10/23 02:20:34;;;;;;;12.63;4.80;;;;;;;;;;2081988;28;20653;-54
2021/10/23 02:21:34;;;;;;;13.17;4.17;;;;;;;;;;2083251;28;20176;-55
2021/10/23 02:22:35;;;;;;;11.93;5.00;;;;;;;;;;2082496;28;20196;-52
2021/10/23 02:23:35;;;;;;;9.60;4.50;;;;;;;;;;2083089;28;20195;-52
2021/10/23 02:24:36;;;;;;;9.97;4.37;;;;;;;;;;2080802;28;20629;-54
2021/10/23 02:25:37;;;;;;;8.43;4.07;;;;;;;;;;2083516;28;20222;-55
2021/10/23 02:26:37;;;;;;;12.60;4.17;;;;;;;;;;2082246;28;20590;-52
2021/10/23 02:27:38;;;;;;;9.90;4.67;;;;;;;;;;2083299;28;20157;-54
2021/10/23 02:28:38;;;;;;;10.10;4.47;;;;;;;;;;2081534;28;20180;-54
2021/10/23 02:29:38;;;;;;;11.90;4.47;;;;;;;;;;2082858;28;20271;-54
2021/10/23 02:30:39;;;;;;;12.83;4.93;;;;;;;;;;2082656;28;20191;-54
2021/10/23 02:31:40;;;;;;;9.57;4.23;;;;;;;;;;2083513;28;20557;-54
2021/10/23 02:32:41;;;;;;;8.10;4.13;;;;;;;;;;2080346;28;20197;-53
2021/10/23 02:33:41;;;;;;;13.67;5.00;;;;;;;;;;2082192;28;20219;-51
2021/10/23 02:34:41;;;;;;;12.50;4.70;;;;;;;;;;2081677;28;20200;-52
2021/10/23 02:35:42;;;;;;;8.87;4.00;;;;;;;;;;2082159;28;20800;-52
2021/10/23 02:36:42;;;;;;;8.10;4.13;;;;;;;;;;2081420;28;20196;-52
2021/10/23 02:37:42;;;;;;;12.83;4.20;;;;;;;;;;2081631;28;20239;-53
2021/10/23 02:38:43;;;;;;;12.07;4.73;;;;;;;;;;2081386;28;20196;-53
2021/10/23 02:39:43;;;;;;;13.27;4.90;;;;;;;;;;2081637;28;20176;-51
2021/10/23 02:40:44;;;;;;;7.17;4.03;;;;;;;;;;2081112;28;20191;-51
2021/10/23 02:41:45;;;;;;;12.93;4.70;;;;;;;;;;2081405;28;20172;-51
2021/10/23 02:42:45;;;;;;;11.57;4.17;;;;;;;;;;2081250;28;20188;-51
2021/10/23 02:43:45;;;;;;;10.57;3.90;;;;;;;;;;2082574;28;20184;-54
2021/10/23 02:44:46;;;;;;;8.50;4.05;;;;;;;;;;2081125;28;20168;-52
2021/10/23 02:45:46;;;;;;;7.50;4.10;;;;;;;;;;2081478;28;20190;-55
2021/10/23 02:46:46;;;;;;;8.27;4.27;;;;;;;;;;2082062;28;20227;-52
2021/10/23 02:47:46;;;;;;;10.93;4.25;;;;;;;;;;2081260;28;20644;-53
2021/10/23 02:48:47;;;;;;;11.20;4.33;;;;;;;;;;2082374;28;20656;-54
2021/10/23 02:49:47;;;;;;;17.17;4.57;;;;;;;;;;2082101;28;20200;-54
2021/10/23 02:50:47;;;;;;;10.60;4.10;;;;;;;;;;2080458;28;20183;-51
2021/10/23 02:51:47;;;;;;;12.60;3.80;;;;;;;;;;2080744;28;20193;-53
2021/10/23 02:52:48;;;;;;;7.47;4.60;;;;;;;;;;2081165;28;20175;-53
2021/10/23 02:53:48;;;;;;;8.27;3.63;;;;;;;;;;2079099;28;20788;-56
2021/10/23 02:54:48;;;;;;;12.20;4.77;;;;;;;;;;2080899;28;20187;-52
2021/10/23 02:55:48;;;;;;;11.87;4.30;;;;;;;;;;2079793;28;20551;-51
2021/10/23 02:56:49;;;;;;;9.70;4.40;;;;;;;;;;2082178;28;20246;-52
2021/10/23 02:57:49;;;;;;;11.10;4.43;;;;;;;;;;2079427;28;20169;-50
2021/10/23 02:58:49;;;;;;;10.00;4.50;;;;;;;;;;2081798;28;20180;-54
2021/10/23 02:59:49;;;;;;;13.90;4.50;;;;;;;;;;2080773;28;20184;-53
2021/10/23 03:00:50;;;;;;;9.60;4.07;;;;;;;;;;2080666;28;20188;-53
2021/10/23 03:01:50;;;;;;;12.93;4.30;;;;;;;;;;2081043;28;20550;-54
2021/10/23 03:02:50;;;;;;;11.53;4.67;;;;;;;;;;2081458;28;20585;-54
2021/10/23 03:03:51;;;;;;;9.90;3.90;;;;;;;;;;2080792;28;20665;-53
2021/10/23 03:04:51;;;;;;;14.00;4.17;;;;;;;;;;2081490;28;20619;-52
2021/10/23 03:05:52;;;;;;;10.27;4.47;;;;;;;;;;2081683;28;20176;-55
2021/10/23 03:06:52;;;;;;;7.57;4.37;;;;;;;;;;2082156;28;20203;-54
2021/10/23 03:07:52;;;;;;;10.93;3.93;;;;;;;;;;2079998;28;20203;-55
2021/10/23 03:08:52;;;;;;;12.40;4.83;;;;;;;;;;2080920;28;20665;-56
2021/10/23 03:09:53;;;;;;;8.20;4.37;;;;;;;;;;2080826;28;20214;-52
2021/10/23 03:10:53;;;;;;;13.63;4.10;;;;;;;;;;2080950;28;20164;-52
2021/10/23 03:11:54;;;;;;;16.07;4.87;;;;;;;;;;2078436;28;20670;-52
2021/10/23 03:12:54;;;;;;;8.17;3.80;;;;;;;;;;2079533;28;20334;-52
2021/10/23 03:13:56;;;;;;;10.83;4.60;;;;;;;;;;2081564;28;20180;-51
2021/10/23 03:14:56;;;;;;;12.77;4.20;;;;;;;;;;2078858;28;20266;-52
2021/10/23 03:15:56;;;;;;;10.63;4.40;;;;;;;;;;2081037;28;20215;-54
2021/10/23 03:16:57;;;;;;;9.33;4.03;;;;;;;;;;2081025;28;20212;-53
2021/10/23 03:17:57;;;;;;;11.67;4.77;;;;;;;;;;2080342;28;20275;-55
2021/10/23 03:18:57;;;;;;;10.87;4.43;;;;;;;;;;2080931;28;20640;-55
2021/10/23 03:19:57;;;;;;;8.90;4.73;;;;;;;;;;2078014;28;20641;-52
2021/10/23 03:20:57;;;;;;;15.27;4.53;;;;;;;;;;2081356;28;20172;-53
2021/10/23 03:21:58;;;;;;;7.30;4.23;;;;;;;;;;2081304;28;20176;-52
2021/10/23 03:22:58;;;;;;;10.70;3.90;;;;;;;;;;2081616;28;20877;-53
2021/10/23 03:23:58;;;;;;;11.60;4.20;;;;;;;;;;2080579;28;20168;-52
2021/10/23 03:24:59;;;;;;;14.07;5.17;;;;;;;;;;2081012;28;20686;-53
2021/10/23 03:26:00;;;;;;;11.60;4.73;;;;;;;;;;2071607;28;20177;-52
2021/10/23 03:27:00;;;;;;;16.07;5.20;;;;;;;;;;2081504;28;20734;-54
2021/10/23 03:28:00;;;;;;;7.67;4.00;;;;;;;;;;2083226;28;20272;-55
2021/10/23 03:29:01;;;;;;;8.87;4.17;;;;;;;;;;2085201;28;20176;-55
2021/10/23 03:30:01;;;;;;;14.03;5.27;;;;;;;;;;2087021;28;20204;-55
2021/10/23 03:31:02;;;;;;;10.47;4.10;;;;;;;;;;2084025;28;20175;-55
2021/10/23 03:32:02;;;;;;;15.70;4.40;;;;;;;;;;2082164;28;20759;-51
2021/10/23 03:33:02;;;;;;;10.90;4.70;;;;;;;;;;2078654;28;20177;-50
2021/10/23 03:34:03;;;;;;;8.53;4.37;;;;;;;;;;2078690;28;20168;-52
2021/10/23 03:35:04;;;;;;;10.73;4.23;;;;;;;;;;2083082;28;20203;-51
2021/10/23 03:36:05;;;;;;;8.43;3.93;;;;;;;;;;2081968;28;20187;-54
2021/10/23 03:37:05;;;;;;;13.07;4.20;;;;;;;;;;2081614;28;20196;-49
2021/10/23 03:38:06;;;;;;;16.40;5.20;;;;;;;;;;2080977;28;20664;-53
2021/10/23 03:39:06;;;;;;;14.60;5.63;;;;;;;;;;2083555;28;20222;-53
2021/10/23 03:40:06;;;;;;;12.87;5.43;;;;;;;;;;2086221;28;20179;-56
2021/10/23 03:41:07;;;;;;;10.87;5.10;;;;;;;;;;2086192;28;20663;-55
2021/10/23 03:42:08;;;;;;;10.40;4.73;;;;;;;;;;2085645;28;20195;-55
2021/10/23 03:43:08;;;;;;;9.97;4.90;;;;;;;;;;2082415;28;20259;-53
2021/10/23 03:44:08;;;;;;;9.47;4.20;;;;;;;;;;2084590;28;20180;-56
2021/10/23 03:45:08;;;;;;;7.97;4.30;;;;;;;;;;2083742;28;20171;-54
2021/10/23 03:46:09;;;;;;;8.70;4.70;;;;;;;;;;2082504;28;20181;-50
2021/10/23 03:47:10;;;;;;;7.93;4.50;;;;;;;;;;2081648;28;20283;-51
2021/10/23 03:48:10;;;;;;;10.43;4.67;;;;;;;;;;2083285;28;20185;-49
2021/10/23 03:49:11;;;;;;;9.50;4.70;;;;;;;;;;2083314;28;20188;-50
2021/10/23 03:50:12;;;;;;;9.53;3.93;;;;;;;;;;2078429;28;20204;-53
2021/10/23 03:51:12;;;;;;;7.50;3.90;;;;;;;;;;2082607;28;20203;-52
2021/10/23 03:52:13;;;;;;;8.47;3.87;;;;;;;;;;2083590;28;20187;-52
2021/10/23 03:53:14;;;;;;;8.63;4.43;;;;;;;;;;2086669;28;20177;-53
2021/10/23 03:54:14;;;;;;;17.37;4.43;;;;;;;;;;2087856;28;20533;-51
2021/10/23 03:55:14;;;;;;;11.97;4.67;;;;;;;;;;2085704;28;20176;-52
2021/10/23 03:56:14;;;;;;;8.03;3.80;;;;;;;;;;2083066;28;20184;-52
2021/10/23 03:57:15;;;;;;;9.03;4.40;;;;;;;;;;2083946;28;20203;-53
2021/10/23 03:58:15;;;;;;;11.90;4.53;;;;;;;;;;2083964;28;20172;-53
2021/10/23 03:59:16;;;;;;;10.53;3.83;;;;;;;;;;2083722;28;20218;-53
2021/10/23 04:00:17;;;;;;;8.27;4.47;;;;;;;;;;2082082;28;20204;-55
2021/10/23 04:01:18;;;;;;;6.30;4.10;;;;;;;;;;2084863;28;20164;-56
2021/10/23 04:02:18;;;;;;;12.83;4.73;;;;;;;;;;2084046;28;20188;-55
2021/10/23 04:03:18;;;;;;;10.33;3.93;;;;;;;;;;2083870;28;20172;-55
2021/10/23 04:04:18;;;;;;;9.83;4.33;;;;;;;;;;2085368;28;20244;-56
2021/10/23 04:05:19;;;;;;;11.60;4.50;;;;;;;;;;2084977;28;20184;-56
2021/10/23 04:06:19;;;;;;;12.20;4.00;;;;;;;;;;2085253;28;20228;-55
2021/10/23 04:07:19;;;;;;;10.97;4.23;;;;;;;;;;2083654;28;20213;-55
2021/10/23 04:08:20;;;;;;;14.50;4.63;;;;;;;;;;2074398;28;20181;-57
2021/10/23 04:09:20;;;;;;;15.97;5.10;;;;;;;;;;2081981;28;20180;-52
2021/10/23 04:10:20;;;;;;;12.43;5.23;;;;;;;;;;2079552;28;20703;-50
2021/10/23 04:11:20;;;;;;;12.80;5.17;;;;;;;;;;2081723;28;20161;-50
2021/10/23 04:12:21;;;;;;;9.90;4.23;;;;;;;;;;2080768;28;20215;-50
2021/10/23 04:13:21;;;;;;;7.80;4.23;;;;;;;;;;2081522;28;20181;-52
2021/10/23 04:14:22;;;;;;;14.32;4.95;;;;;;;;;;2080310;28;20196;-48
2021/10/23 04:15:22;;;;;;;10.33;4.40;;;;;;;;;;2072446;28;20173;-52
2021/10/23 04:16:22;;;;;;;11.50;4.27;;;;;;;;;;2081026;28;20180;-51
2021/10/23 04:17:22;;;;;;;11.35;4.32;;;;;;;;;;2103487;22;20193;-61
2021/10/23 04:18:22;;;;;;;10.87;5.07;;;;;;;;;;2085325;28;20265;-60
2021/10/23 04:19:23;;;;;;;11.23;4.63;;;;;;;;;;2081007;28;21029;-58
2021/10/23 04:20:23;;;;;;;12.20;4.80;;;;;;;;;;2087015;28;20233;-57
2021/10/23 04:21:23;;;;;;;13.03;4.57;;;;;;;;;;2097503;28;20199;-57
2021/10/23 04:22:24;;;;;;;7.70;4.83;;;;;;;;;;2095895;28;20588;-55
2021/10/23 04:23:24;;;;;;;17.52;4.57;;;;;;;;;;2080656;28;20176;-57
2021/10/23 04:24:24;;;;;;;12.60;5.40;;;;;;;;;;2078282;28;20238;-56
2021/10/23 04:25:26;;;;;;;14.70;5.10;;;;;;;;;;2076988;28;20203;-56
2021/10/23 04:26:27;;;;;;;18.87;6.03;;;;;;;;;;2086586;28;20271;-59
2021/10/23 04:27:27;;;;;;;16.13;5.33;;;;;;;;;;2091813;28;20245;-54
2021/10/23 04:28:28;;;;;;;15.10;5.87;;;;;;;;;;2094223;28;20176;-55
2021/10/23 04:29:28;;;;;;;12.83;6.10;;;;;;;;;;2084898;28;20238;-56
2021/10/23 04:30:28;;;;;;;13.30;6.00;;;;;;;;;;2077384;28;20169;-56
2021/10/23 04:31:28;;;;;;;10.80;5.53;;;;;;;;;;2084892;28;20563;-51
2021/10/23 04:32:29;;;;;;;11.70;5.70;;;;;;;;;;2094477;28;20168;-57
2021/10/23 04:33:29;;;;;;;13.50;6.20;;;;;;;;;;2093858;28;20593;-55
2021/10/23 04:34:30;;;;;;;13.07;6.23;;;;;;;;;;2093552;28;20313;-59
2021/10/23 04:35:30;;;;;;;11.80;5.73;;;;;;;;;;2095251;28;20203;-55
2021/10/23 04:36:30;;;;;;;18.13;7.10;;;;;;;;;;2084875;28;20168;-57
2021/10/23 04:37:31;;;;;;;10.23;5.70;;;;;;;;;;2083088;28;20204;-58
2021/10/23 04:38:31;;;;;;;12.67;5.57;;;;;;;;;;2094555;28;20175;-58
2021/10/23 04:39:32;;;;;;;12.00;5.80;;;;;;;;;;2093564;28;20631;-53
2021/10/23 04:40:32;;;;;;;15.27;6.13;;;;;;;;;;2094293;28;20643;-57
2021/10/23 04:41:32;;;;;;;12.87;6.07;;;;;;;;;;2095104;28;20631;-59
2021/10/23 04:42:33;;;;;;;12.13;5.63;;;;;;;;;;2093640;28;20663;-59
2021/10/23 04:43:34;;;;;;;12.53;5.80;;;;;;;;;;2095257;28;20556;-57
2021/10/23 04:44:34;;;;;;;10.90;6.23;;;;;;;;;;2094143;28;20175;-56
2021/10/23 04:45:34;;;;;;;14.77;5.90;;;;;;;;;;2084666;28;20207;-58
2021/10/23 04:46:35;;;;;;;12.63;6.60;;;;;;;;;;2084590;28;20616;-53
2021/10/23 04:47:35;;;;;;;13.17;5.73;;;;;;;;;;2091392;28;20564;-56
2021/10/23 04:48:35;;;;;;;11.67;5.97;;;;;;;;;;2094769;28;20270;-54
2021/10/23 04:49:36;;;;;;;11.40;5.40;;;;;;;;;;2084681;28;20191;-58
2021/10/23 04:50:36;;;;;;;9.23;5.50;;;;;;;;;;2085675;28;20683;-60
2021/10/23 04:51:36;;;;;;;16.60;6.50;;;;;;;;;;2086607;28;20177;-57
2021/10/23 04:52:36;;;;;;;6.13;4.90;;;;;;;;;;2092325;28;20534;-60
2021/10/23 04:53:37;;;;;;;11.67;6.00;;;;;;;;;;2095476;28;20178;-57
2021/10/23 04:54:37;;;;;;;12.23;6.37;;;;;;;;;;2096019;28;20178;-59
2021/10/23 04:55:37;;;;;;;14.37;6.03;;;;;;;;;;2094825;28;20163;-56
2021/10/23 04:56:37;;;;;;;14.97;6.00;;;;;;;;;;2094693;28;20211;-56
2021/10/23 04:57:38;;;;;;;10.40;6.17;;;;;;;;;;2085606;28;20184;-55
2021/10/23 04:58:38;;;;;;;14.37;6.13;;;;;;;;;;2079216;28;20169;-57
2021/10/23 04:59:39;;;;;;;10.37;5.63;;;;;;;;;;2085437;28;20198;-57
2021/10/23 05:00:39;;;;;;;11.37;5.80;;;;;;;;;;2092803;28;20214;-58
2021/10/23 05:01:40;;;;;;;12.43;6.00;;;;;;;;;;2094531;28;20187;-57
2021/10/23 05:02:40;;;;;;;18.13;7.70;;;;;;;;;;2079815;28;20181;-56
2021/10/23 05:03:41;;;;;;;12.03;6.77;;;;;;;;;;2073250;28;20265;-55
2021/10/23 05:04:41;;;;;;;18.80;6.43;;;;;;;;;;2088530;28;20168;-56
2021/10/23 05:05:41;;;;;;;13.47;6.23;;;;;;;;;;2095090;28;20217;-56
2021/10/23 05:06:41;;;;;;;10.97;6.00;;;;;;;;;;2096992;28;20179;-56
2021/10/23 05:07:42;;;;;;;12.37;6.80;;;;;;;;;;2083461;28;20932;-56
2021/10/23 05:08:42;;;;;;;15.53;7.13;;;;;;;;;;2084319;28;20255;-54
2021/10/23 05:09:43;;;;;;;14.83;6.47;;;;;;;;;;2093398;28;20183;-57
2021/10/23 05:10:43;;;;;;;10.63;6.30;;;;;;;;;;2096358;28;20730;-58
2021/10/23 05:11:43;;;;;;;12.53;6.87;;;;;;;;;;2093797;28;20164;-56
2021/10/23 05:12:44;;;;;;;15.77;6.23;;;;;;;;;;2095060;28;20666;-56
2021/10/23 05:13:44;;;;;;;18.60;6.40;;;;;;;;;;2094453;28;20229;-57
2021/10/23 05:14:44;;;;;;;15.73;6.97;;;;;;;;;;2094611;28;20179;-56
2021/10/23 05:15:45;;;;;;;14.47;6.67;;;;;;;;;;2095928;28;20194;-52
2021/10/23 05:16:45;;;;;;;15.83;6.80;;;;;;;;;;2096067;28;20258;-54
2021/10/23 05:17:45;;;;;;;15.40;6.77;;;;;;;;;;2099035;28;20207;-56
2021/10/23 05:18:49;;;;;;;8.50;6.13;;;;;;;;;;2102008;28;20223;-58
2021/10/23 05:19:49;;;;;;;19.80;6.90;;;;;;;;;;2100342;28;20167;-59
2021/10/23 05:20:49;;;;;;;17.17;7.43;;;;;;;;;;2099325;28;20171;-59
2021/10/23 05:21:49;;;;;;;17.10;7.07;;;;;;;;;;2099927;28;20191;-52
2021/10/23 05:22:50;;;;;;;19.50;7.63;;;;;;;;;;2085232;28;20172;-51
2021/10/23 05:23:53;;;;;;;16.53;7.37;;;;;;;;;;2085391;28;20165;-51
2021/10/23 05:24:53;;;;;;;21.10;7.37;;;;;;;;;;2094498;28;20176;-51
2021/10/23 05:25:54;;;;;;;17.33;7.33;;;;;;;;;;2093304;28;20168;-53
2021/10/23 05:26:54;;;;;;;12.50;7.67;;;;;;;;;;2096531;28;20175;-51
2021/10/23 05:27:54;;;;;;;11.03;7.20;;;;;;;;;;2093001;28;20736;-54
2021/10/23 05:28:54;;;;;;;16.30;7.97;;;;;;;;;;2082087;28;20168;-52
2021/10/23 05:29:55;;;;;;;18.17;6.97;;;;;;;;;;2085588;28;20204;-56
2021/10/23 05:30:55;;;;;;;21.93;8.03;;;;;;;;;;2093970;28;20192;-56
2021/10/23 05:31:55;;;;;;;19.27;7.77;;;;;;;;;;2094839;28;20245;-52
2021/10/23 05:32:56;;;;;;;20.07;8.20;;;;;;;;;;2094595;28;20176;-53
2021/10/23 05:33:56;;;;;;;18.77;7.77;;;;;;;;;;2094615;28;20198;-56
2021/10/23 05:34:56;;;;;;;14.80;7.23;;;;;;;;;;2091774;28;20172;-56
2021/10/23 05:35:57;;;;;;;15.27;7.47;;;;;;;;;;2094433;28;20703;-55
2021/10/23 05:36:57;;;;;;;17.40;7.33;;;;;;;;;;2083432;28;20180;-55
2021/10/23 05:37:57;;;;;;;21.67;8.23;;;;;;;;;;2082924;28;20727;-55
2021/10/23 05:38:58;;;;;;;14.37;8.40;;;;;;;;;;2093165;28;20183;-55
2021/10/23 05:39:58;;;;;;;17.10;7.93;;;;;;;;;;2094950;28;20200;-54
2021/10/23 05:40:58;;;;;;;13.97;7.33;;;;;;;;;;2082932;28;20196;-53
2021/10/23 05:41:58;;;;;;;18.30;8.17;;;;;;;;;;2086138;28;20178;-59
2021/10/23 05:42:59;;;;;;;17.77;7.20;;;;;;;;;;2092578;28;20180;-57
2021/10/23 05:43:59;;;;;;;17.57;7.93;;;;;;;;;;2094784;28;20226;-58
2021/10/23 05:44:59;;;;;;;14.27;7.30;;;;;;;;;;2095003;28;20194;-57
2021/10/23 05:46:00;;;;;;;21.17;8.57;;;;;;;;;;2091904;28;20254;-57
2021/10/23 05:47:00;;;;;;;19.30;8.50;;;;;;;;;;2094343;28;20198;-57
2021/10/23 05:48:00;;;;;;;18.77;8.47;;;;;;;;;;2092318;28;20194;-57
2021/10/23 05:49:01;;;;;;;15.67;8.33;;;;;;;;;;2094425;28;20244;-54
2021/10/23 05:50:01;;;;;;;18.83;8.60;;;;;;;;;;2092774;28;20198;-58
2021/10/23 05:51:01;;;;;;;17.60;8.20;;;;;;;;;;2094049;28;20191;-57
2021/10/23 05:52:01;;;;;;;17.87;8.00;;;;;;;;;;2092637;28;20167;-55
2021/10/23 05:53:02;;;;;;;19.97;9.40;;;;;;;;;;2094373;28;20170;-57
2021/10/23 05:54:02;;;;;;;19.37;8.47;;;;;;;;;;2092908;28;20173;-58
2021/10/23 05:55:03;;;;;;;16.27;8.30;;;;;;;;;;2088104;28;20171;-57
2021/10/23 05:56:03;;;;;;;17.23;8.47;;;;;;;;;;2084512;28;20321;-58
2021/10/23 05:57:07;;;;;;;17.20;8.77;;;;;;;;;;2087120;28;20305;-58
2021/10/23 05:58:08;;;;;;;18.00;8.77;;;;;;;;;;2086253;28;20189;-57